Overview Statistics Trail Chart Weather Telemetry Raw packets
 

This is the latest recevied weather packets stored in our database for station/object W5ITZ. If no packets are shown the sender has not sent any weather packets the latest 10 day(s).

<< 106 107 108 109 110 111 112 >>
Time Temp. Humidity Pressure Rain* Wind** Luminosity Snow
1787422352 35.56° C 47% 1017.2 hPa 0 mm - 965 W/m² -
1787422047 35.56° C 48% 1017.2 hPa 0 mm - 962 W/m² -
1787421744 35.56° C 48% 1017 hPa 0 mm - 963 W/m² -
1787421444 35° C 49% 1017.3 hPa 0 mm - 960 W/m² -
1787421139 35° C 50% 1017.3 hPa 0 mm - 962 W/m² -
1787420834 35° C 51% 1017.2 hPa 0 mm - 959 W/m² -
1787420530 35° C 50% 1017.3 hPa 0 mm - 959 W/m² -
1787420265 35° C 51% 1017.6 hPa 0 mm - 959 W/m² -
1787419923 35° C 52% 1017.4 hPa 0 mm - 953 W/m² -
1787419619 34.44° C 54% 1017.5 hPa 0 mm - 944 W/m² -
1787419318 34.44° C 52% 1017.6 hPa 0 mm - 936 W/m² -
1787419015 34.44° C 52% 1017.6 hPa 0 mm - 937 W/m² -
1787418715 33.89° C 55% 1017.4 hPa 0 mm - 890 W/m² -
1787418411 33.89° C 58% 1017.7 hPa 0 mm - 910 W/m² -
1787418108 33.89° C 58% 1017.3 hPa 0 mm - 848 W/m² -
1787417803 33.89° C 58% 1017.7 hPa 0 mm - 897 W/m² -
1787417498 33.33° C 60% 1017.9 hPa 0 mm - 852 W/m² -
1787417193 32.78° C 62% 1017.9 hPa 0 mm - 879 W/m² -
1787416889 32.78° C 61% 1017.7 hPa 0 mm - 840 W/m² -
1787416584 32.78° C 64% 1017.8 hPa 0 mm - 808 W/m² -
1787416280 32.78° C 64% 1017.8 hPa 0 mm - 791 W/m² -
1787415974 32.22° C 67% 1017.4 hPa 0 mm - 705 W/m² -
1787415669 32.22° C 66% 1017.8 hPa 0 mm - 815 W/m² -
1787415364 32.22° C 66% 1017.9 hPa 0 mm - 803 W/m² -
1787415059 31.67° C 67% 1017.4 hPa 0 mm - 791 W/m² -

* Rain latest hour (hover to see other rain measurements)
** Current wind speed in m/s (hover to see current wind gust speed)